Eglin Air Force Base
KVPS : now visible

Airfield :











YOU CAN JOIN US ON...

 
LOGIN :

Register | Disclaimer

   EN    FR    IT 

 









Legend :    VFR   Marginal VFR   IFR   Intensive IFR   Very Intensive IFR
Visi :
Ceiling :
>= 8 km
>= 3000ft
5 to 8 km
1000 to 3000 ft
1500m to 5 km
500 to 1000 ft
800 to 1500m
200 to 500 ft
< 800m
< 200 ft
Symbols :   Thunderstorms  Fog  Heavy snow  Heavy precipitations  Wind > 20 kt






- Airport Elevation : 87 ft
- IATA code : VPS


KVPS - Eglin Air Force Base

CURRENT METAR :
  • 250456Z AUTO 00000KT 10SM SCT018 OVC080 21/21 A2990 RMK AO2 SLP131 T02090205 $

EXPIRED METARs :
  • 250416Z AUTO 00000KT 8SM BKN019 OVC070 21/21 A2992 RMK AO2 CIG 019V070 BKN V SCT CIG 016 RWY01 CIG 016 RWY30 SLP138 $
  • 250356Z AUTO 00000KT 10SM FEW014 BKN075 21/20 A2992 RMK AO2 SLP138 T02070204 $
  • 250256Z AUTO 00000KT 10SM OVC075 20/20 A2991 RMK AO2 SLP135 T02020200 52007 $

TAF AMD TAF KVPS
Valid from the 25 at 04:00 until the 26 at 07:00 UTC


250430Z 2504/2607 16006KT 9999 BKN018 BKN030 QNH2991INS
BECMG 2505/2506 34004KT 9999 BKN011 QNH2992INS
TEMPO 2506/2512 BKN009
BECMG 2511/2512 01006KT 9999 SCT011 SCT025 QNH2995INS WND 03006KT AFT 2517Z
BECMG 2520/2521 23004KT 9999 FEW025 QNH2993INS WND 34004KT AFT 2603Z TX25/2521Z TN19/2512Z
KZJX FIR / North America



MET'MAP, your aeronautical weather chart ! - Copyright ORBIFLY December 2007 - Disclaimer

ORBIFLY MET'MAP TEAM :

Programming & Development : Alexandra Zaïnal
Concept & original design : Baudouin d'Aumeries
Assistance for programming : Marc-Olivier Méhu
Technical & hardware support : Manuel Goepfert

Contact : metmap@orbifly.com




SOURCES & CREDITS :

   NOAA       Earth
Advisory